Time;durP1;ratioP1;P1;durP2;ratioP2;P2;SDS_P1;SDS_P2;PMS_P1;PMS_P2;Temp;Humidity;BMP_temperature;BMP_pressure;BME280_temperature;BME280_humidity;BME280_pressure;Samples;Min_cycle;Max_cycle;Signal;HPM_P1;HPM_P2
2021/07/03 00:00:15;;;;;;;13.43;8.40;;;;;;;18.89;57.84;101624.63;4982028;28;109660;-75
2021/07/03 00:02:42;;;;;;;14.25;7.95;;;;;;;18.86;57.78;101626.56;4998719;28;108398;-76
2021/07/03 00:05:10;;;;;;;14.75;8.50;;;;;;;18.83;57.84;101632.13;4983408;28;124872;-77
2021/07/03 00:07:37;;;;;;;14.20;8.10;;;;;;;18.80;57.92;101627.00;4981591;28;123506;-77
2021/07/03 00:10:05;;;;;;;14.80;8.20;;;;;;;18.78;58.01;101631.56;4987660;28;109906;-79
2021/07/03 00:12:32;;;;;;;11.55;7.63;;;;;;;18.75;57.76;101634.44;4997231;28;107931;-77
2021/07/03 00:15:00;;;;;;;11.02;7.20;;;;;;;18.72;57.88;101629.28;4990418;28;124124;-77
2021/07/03 00:17:27;;;;;;;11.88;7.03;;;;;;;18.69;57.96;101632.19;4979042;28;123880;-77
2021/07/03 00:19:54;;;;;;;10.23;6.15;;;;;;;18.65;58.07;101633.34;4991251;28;109485;-77
2021/07/03 00:22:21;;;;;;;10.38;6.70;;;;;;;18.61;58.22;101631.81;4977878;28;108444;-78
2021/07/03 00:24:48;;;;;;;12.57;6.95;;;;;;;18.57;58.05;101636.56;4982141;28;123777;-77
2021/07/03 00:27:15;;;;;;;9.95;6.47;;;;;;;18.54;58.26;101630.53;4979969;28;123162;-78
2021/07/03 00:29:42;;;;;;;8.60;5.88;;;;;;;18.51;57.97;101633.41;5007731;28;109789;-76
2021/07/03 00:32:09;;;;;;;10.05;6.45;;;;;;;18.48;58.34;101631.78;4981550;28;110009;-76
2021/07/03 00:34:37;;;;;;;9.73;6.57;;;;;;;18.45;58.13;101627.47;4962674;28;123758;-76
2021/07/03 00:37:04;;;;;;;9.13;6.57;;;;;;;18.44;58.05;101628.44;4981022;28;123853;-76
2021/07/03 00:39:31;;;;;;;10.60;6.47;;;;;;;18.42;58.24;101626.81;4977772;28;107536;-76
2021/07/03 00:41:58;;;;;;;13.05;7.38;;;;;;;18.40;58.11;101629.63;4982366;28;109110;-76
2021/07/03 00:44:30;;;;;;;12.88;7.15;;;;;;;18.38;58.05;101626.16;4978061;28;123089;-76
2021/07/03 00:47:00;;;;;;;8.75;6.50;;;;;;;18.36;58.22;101621.84;4966683;28;123218;-77
2021/07/03 00:49:29;;;;;;;9.10;6.00;;;;;;;18.32;58.12;101623.88;4981255;28;109371;-77
2021/07/03 00:51:59;;;;;;;9.95;6.35;;;;;;;18.30;58.21;101623.13;4982139;28;109391;-76
2021/07/03 00:54:28;;;;;;;9.57;6.68;;;;;;;18.27;58.26;101625.97;4970977;28;123149;-75
2021/07/03 00:57:03;;;;;;;9.95;6.50;;;;;;;18.25;58.16;101619.88;4997149;28;122922;-77
2021/07/03 00:59:38;;;;;;;8.75;5.32;;;;;;;18.21;58.12;101619.19;4978685;28;107535;-77
2021/07/03 01:02:09;;;;;;;12.07;6.40;;;;;;;18.18;58.19;101619.41;4977561;28;108305;-77
2021/07/03 01:04:38;;;;;;;10.48;6.47;;;;;;;18.15;58.36;101630.31;4978422;28;124207;-77
2021/07/03 01:07:07;;;;;;;9.70;6.38;;;;;;;18.12;58.32;101625.19;4979364;28;123711;-76
2021/07/03 01:09:35;;;;;;;10.38;6.10;;;;;;;18.09;58.38;101631.59;4979043;28;109606;-77
2021/07/03 01:12:04;;;;;;;10.27;5.93;;;;;;;18.06;58.42;101626.44;4978526;28;108836;-77
2021/07/03 01:14:32;;;;;;;11.23;7.07;;;;;;;18.04;58.58;101627.47;4976351;28;123494;-76
2021/07/03 01:16:59;;;;;;;9.40;6.57;;;;;;;18.01;58.42;101623.19;4980468;28;122238;-77
2021/07/03 01:19:27;;;;;;;11.15;6.13;;;;;;;17.98;58.30;101628.72;4978458;28;109893;-77
2021/07/03 01:21:56;;;;;;;10.85;7.03;;;;;;;17.97;58.62;101627.03;4964460;28;109049;-77
2021/07/03 01:24:24;;;;;;;11.30;6.90;;;;;;;17.93;58.44;101622.78;4961580;28;123966;-77
2021/07/03 01:26:54;;;;;;;9.85;6.50;;;;;;;17.92;58.53;101622.91;4979423;28;123380;-77
2021/07/03 01:29:24;;;;;;;10.30;6.97;;;;;;;17.91;58.66;101622.03;4979071;28;109832;-77
2021/07/03 01:31:55;;;;;;;9.13;6.63;;;;;;;17.87;58.64;101616.00;4979697;28;108923;-77
2021/07/03 01:34:27;;;;;;;9.20;6.82;;;;;;;17.85;58.65;101623.28;4975829;28;123289;-78
2021/07/03 01:36:55;;;;;;;10.77;7.15;;;;;;;17.83;59.00;101619.81;4963750;28;124030;-79
2021/07/03 01:39:24;;;;;;;9.20;6.57;;;;;;;17.81;58.84;101620.88;4981644;28;108802;-77
2021/07/03 01:41:51;;;;;;;10.77;6.82;;;;;;;17.79;58.78;101612.06;4995087;28;109066;-78
2021/07/03 01:44:24;;;;;;;9.43;6.50;;;;;;;17.77;59.02;101614.84;4959318;28;125815;-78
2021/07/03 01:46:55;;;;;;;9.68;6.82;;;;;;;17.79;58.95;101617.44;4977506;28;123573;-78
2021/07/03 01:49:26;;;;;;;10.05;7.30;;;;;;;17.78;59.05;101610.34;4970615;28;107560;-77
2021/07/03 01:51:55;;;;;;;9.13;6.55;;;;;;;17.77;58.84;101614.84;4978800;28;108619;-77
2021/07/03 01:54:25;;;;;;;12.45;7.22;;;;;;;17.77;58.96;101614.00;4992703;28;122646;-77
2021/07/03 01:56:58;;;;;;;12.23;5.97;;;;;;;17.74;58.89;101614.19;4966395;28;122649;-77
2021/07/03 01:59:37;;;;;;;7.88;5.20;;;;;;;17.69;58.76;101612.66;4981910;28;108135;-79
2021/07/03 02:02:08;;;;;;;7.57;5.57;;;;;;;17.66;58.93;101618.19;4979332;28;108710;-77
2021/07/03 02:04:39;;;;;;;7.20;5.45;;;;;;;17.64;58.82;101621.94;4982049;28;124036;-77
2021/07/03 02:07:08;;;;;;;7.75;5.55;;;;;;;17.61;58.97;101617.63;4970492;28;123219;-78
2021/07/03 02:09:37;;;;;;;7.20;5.32;;;;;;;17.58;58.98;101615.13;5000342;28;109385;-78
2021/07/03 02:12:06;;;;;;;6.75;5.57;;;;;;;17.56;59.04;101622.41;4971283;28;108981;-77
2021/07/03 02:14:43;;;;;;;9.43;5.85;;;;;;;17.54;58.87;101608.25;4978310;28;123270;-77
2021/07/03 02:17:22;;;;;;;8.20;5.20;;;;;;;17.54;58.96;101600.22;5007633;22;124255;-64
2021/07/03 02:19:50;;;;;;;8.60;5.13;;;;;;;17.51;58.86;101603.06;4977502;28;109289;-64
2021/07/03 02:22:22;;;;;;;8.88;5.78;;;;;;;17.48;58.98;101608.66;4980099;28;108510;-64
2021/07/03 02:24:51;;;;;;;8.30;5.75;;;;;;;17.45;58.98;101608.81;4984062;28;123713;-64
2021/07/03 02:27:22;;;;;;;9.23;6.43;;;;;;;17.42;59.27;101600.97;4980430;28;124333;-65
2021/07/03 02:29:53;;;;;;;7.70;5.70;;;;;;;17.41;59.25;101607.28;4989248;28;108317;-64
2021/07/03 02:32:21;;;;;;;8.30;5.30;;;;;;;17.40;59.24;101610.91;4992061;28;108292;-64
2021/07/03 02:34:48;;;;;;;9.25;5.90;;;;;;;17.37;59.32;101600.41;4979449;28;124780;-64
2021/07/03 02:37:15;;;;;;;9.68;6.30;;;;;;;17.36;59.37;101598.69;4981961;28;123001;-64
2021/07/03 02:39:44;;;;;;;9.05;5.93;;;;;;;17.34;59.39;101605.94;4997257;28;108418;-65
2021/07/03 02:42:11;;;;;;;7.20;5.53;;;;;;;17.31;59.53;101591.78;4978955;28;108431;-65
2021/07/03 02:44:41;;;;;;;6.68;5.05;;;;;;;17.27;59.44;101584.91;4985753;28;123405;-65
2021/07/03 02:47:08;;;;;;;6.78;5.03;;;;;;;17.26;59.52;101588.53;4987885;28;124836;-66
2021/07/03 02:49:35;;;;;;;9.75;6.00;;;;;;;17.23;59.65;101588.69;4985070;28;109484;-64
2021/07/03 02:52:03;;;;;;;10.32;6.55;;;;;;;17.21;59.46;101585.25;4980474;28;109228;-64
2021/07/03 02:54:33;;;;;;;9.82;6.30;;;;;;;17.20;59.97;101594.25;5000121;28;123229;-64
2021/07/03 02:57:01;;;;;;;9.55;6.32;;;;;;;17.18;59.52;101588.16;4980013;28;123245;-64
2021/07/03 02:59:30;;;;;;;8.30;6.10;;;;;;;17.19;59.65;101592.53;4986902;28;110482;-64
2021/07/03 03:02:00;;;;;;;8.77;6.10;;;;;;;17.19;59.75;101584.50;4976710;28;109961;-64
2021/07/03 03:04:27;;;;;;;10.43;6.38;;;;;;;17.18;59.83;101580.13;4981778;28;122892;-64
2021/07/03 03:06:54;;;;;;;9.95;6.10;;;;;;;17.17;59.80;101578.38;4979337;28;123749;-65
2021/07/03 03:09:22;;;;;;;10.88;6.47;;;;;;;17.15;59.98;101579.44;4980657;28;108446;-65
2021/07/03 03:11:50;;;;;;;9.80;6.28;;;;;;;17.11;59.99;101573.41;4987412;28;109169;-64
2021/07/03 03:14:17;;;;;;;11.85;6.57;;;;;;;17.08;60.11;101568.22;4978707;28;123485;-64
2021/07/03 03:16:44;;;;;;;10.13;6.70;;;;;;;17.06;60.30;101571.00;4975512;28;124001;-65
2021/07/03 03:19:11;;;;;;;11.38;6.95;;;;;;;17.05;60.30;101568.44;4976975;28;109236;-65
2021/07/03 03:21:42;;;;;;;14.85;8.25;;;;;;;17.05;60.55;101571.13;4979969;28;109344;-65
2021/07/03 03:24:09;;;;;;;12.98;8.05;;;;;;;17.06;60.47;101564.78;4978502;28;123562;-65
2021/07/03 03:26:36;;;;;;;17.10;9.05;;;;;;;17.07;60.47;101571.88;4980500;28;124214;-65
2021/07/03 03:29:08;;;;;;;16.77;8.80;;;;;;;17.07;60.73;101563.84;4985718;28;108371;-64
2021/07/03 03:31:35;;;;;;;13.80;8.05;;;;;;;17.06;60.73;101564.78;4985970;28;108104;-64
2021/07/03 03:34:04;;;;;;;16.35;9.40;;;;;;;17.07;60.77;101558.50;4988122;28;124293;-64
2021/07/03 03:36:31;;;;;;;17.67;10.68;;;;;;;17.08;60.76;101563.75;4985884;28;123761;-64
2021/07/03 03:38:59;;;;;;;19.27;11.40;;;;;;;17.10;60.78;101558.28;4980603;28;108489;-64
2021/07/03 03:41:27;;;;;;;20.20;11.07;;;;;;;17.12;61.02;101553.69;4984246;28;109091;-65
2021/07/03 03:43:55;;;;;;;18.95;10.90;;;;;;;17.12;61.02;101561.72;4982341;28;123721;-65
2021/07/03 03:46:27;;;;;;;20.35;11.15;;;;;;;17.15;61.00;101558.88;4977931;28;124114;-65
2021/07/03 03:48:55;;;;;;;21.80;11.82;;;;;;;17.17;61.08;101562.31;4983692;28;110562;-64
2021/07/03 03:51:24;;;;;;;22.55;12.00;;;;;;;17.20;61.07;101562.13;4988960;28;110245;-65
2021/07/03 03:53:51;;;;;;;16.77;10.10;;;;;;;17.23;61.13;101567.28;4983361;28;121870;-65
2021/07/03 03:56:18;;;;;;;16.88;9.82;;;;;;;17.26;61.07;101561.75;4976283;28;124604;-63
2021/07/03 03:58:45;;;;;;;14.98;8.75;;;;;;;17.29;61.13;101556.22;4982060;28;109163;-62
2021/07/03 04:01:19;;;;;;;17.00;9.52;;;;;;;17.32;60.91;101561.38;4979323;28;108105;-63
2021/07/03 04:03:47;;;;;;;14.20;8.60;;;;;;;17.34;60.73;101558.59;4978243;28;123447;-63
2021/07/03 04:06:14;;;;;;;14.02;8.77;;;;;;;17.35;60.78;101554.97;4982038;28;124147;-64
2021/07/03 04:08:42;;;;;;;19.85;10.63;;;;;;;17.37;60.81;101547.72;4983026;28;109569;-62
2021/07/03 04:11:09;;;;;;;23.85;11.93;;;;;;;17.40;60.85;101547.50;4984549;28;109359;-62
2021/07/03 04:13:37;;;;;;;27.23;13.25;;;;;;;17.40;60.96;101552.84;4983109;28;123472;-64
2021/07/03 04:16:04;;;;;;;26.50;14.18;;;;;;;17.45;61.16;101549.91;4981576;28;123978;-62
2021/07/03 04:18:32;;;;;;;25.23;13.57;;;;;;;17.48;61.27;101549.72;4981118;28;111445;-62
2021/07/03 04:21:00;;;;;;;23.25;13.32;;;;;;;17.51;61.25;101541.47;4983749;28;109304;-62
2021/07/03 04:23:27;;;;;;;23.63;13.70;;;;;;;17.56;61.14;101547.41;4985403;28;124146;-62
2021/07/03 04:25:55;;;;;;;28.15;15.07;;;;;;;17.58;61.30;101550.84;4986599;28;124203;-62
2021/07/03 04:28:26;;;;;;;33.08;15.55;;;;;;;17.63;61.38;101554.09;4968754;28;113392;-63
2021/07/03 04:30:53;;;;;;;28.40;15.10;;;;;;;17.67;61.32;101549.41;4979369;28;114252;-63
2021/07/03 04:33:21;;;;;;;26.63;14.32;;;;;;;17.71;61.40;101546.44;4989357;28;123046;-63
2021/07/03 04:35:50;;;;;;;35.10;17.23;;;;;;;17.75;61.44;101546.25;4986612;28;123531;-63
2021/07/03 04:38:19;;;;;;;35.33;17.88;;;;;;;17.80;61.62;101546.78;4975854;28;115539;-65
2021/07/03 04:40:48;;;;;;;37.80;18.55;;;;;;;17.85;61.62;101552.75;4983145;28;115123;-63
2021/07/03 04:43:15;;;;;;;38.35;19.02;;;;;;;17.89;61.75;101554.28;4979800;28;124949;-63
2021/07/03 04:45:43;;;;;;;46.65;19.77;;;;;;;17.95;61.84;101561.94;4973722;28;124464;-64
2021/07/03 04:48:10;;;;;;;38.53;19.20;;;;;;;18.01;61.84;101561.53;4981429;28;114587;-63
2021/07/03 04:50:41;;;;;;;40.95;21.05;;;;;;;18.07;61.95;101569.16;4968611;28;113373;-64
2021/07/03 04:53:09;;;;;;;40.95;20.95;;;;;;;18.13;61.84;101561.69;4978197;28;124198;-63
2021/07/03 04:55:36;;;;;;;41.70;21.30;;;;;;;18.18;61.84;101559.56;4980388;28;124165;-63
2021/07/03 04:58:07;;;;;;;41.85;20.42;;;;;;;18.24;61.72;101564.53;4982483;28;114518;-64
2021/07/03 05:00:34;;;;;;;43.92;20.90;;;;;;;18.31;61.94;101560.50;4981637;28;114134;-63
2021/07/03 05:03:01;;;;;;;41.50;21.25;;;;;;;18.38;61.84;101567.13;4981077;28;124457;-63
2021/07/03 05:05:28;;;;;;;45.30;22.08;;;;;;;18.45;62.14;101573.81;4984418;28;124293;-63
2021/07/03 05:07:55;;;;;;;40.30;21.98;;;;;;;18.52;61.91;101568.06;4982604;28;114261;-63
2021/07/03 05:10:22;;;;;;;46.15;22.70;;;;;;;18.58;61.99;101564.97;4975724;28;114380;-64
2021/07/03 05:12:50;;;;;;;46.53;22.85;;;;;;;18.65;61.61;101568.97;4978288;28;124011;-63
2021/07/03 05:15:17;;;;;;;45.63;23.13;;;;;;;18.71;61.76;101563.16;4979232;28;124325;-63
2021/07/03 05:17:44;;;;;;;46.63;23.45;;;;;;;18.76;61.88;101561.03;4979188;28;114143;-64
2021/07/03 05:20:12;;;;;;;42.58;23.08;;;;;;;18.81;61.64;101564.28;4976117;28;114113;-63
2021/07/03 05:22:39;;;;;;;47.63;24.25;;;;;;;18.89;61.75;101560.22;4982549;28;124604;-63
2021/07/03 05:25:07;;;;;;;46.30;24.08;;;;;;;18.96;61.75;101556.16;4977268;28;124701;-63
2021/07/03 05:27:34;;;;;;;47.78;24.58;;;;;;;19.03;61.86;101560.13;4980436;28;115606;-63
2021/07/03 05:30:03;;;;;;;45.17;24.58;;;;;;;19.09;61.82;101556.16;4978052;28;115200;-63
2021/07/03 05:32:31;;;;;;;48.90;25.52;;;;;;;19.16;61.91;101558.31;4981433;28;123039;-63
2021/07/03 05:34:59;;;;;;;49.78;26.70;;;;;;;19.22;62.00;101552.50;4980048;28;123429;-63
2021/07/03 05:37:26;;;;;;;50.50;26.77;;;;;;;19.31;62.14;101550.13;4989592;28;113129;-63
2021/07/03 05:39:53;;;;;;;50.30;26.65;;;;;;;19.39;62.10;101555.84;4982805;28;114551;-63
2021/07/03 05:42:21;;;;;;;51.58;27.33;;;;;;;19.46;61.95;101543.69;4980810;28;123068;-64
2021/07/03 05:44:48;;;;;;;50.25;26.63;;;;;;;19.53;62.02;101544.09;4972166;28;124274;-63
2021/07/03 05:47:18;;;;;;;49.22;26.25;;;;;;;19.60;61.89;101546.22;4977749;28;114424;-63
2021/07/03 05:49:45;;;;;;;47.92;26.85;;;;;;;19.69;61.96;101542.03;4980110;28;115375;-63
2021/07/03 05:52:12;;;;;;;50.63;27.02;;;;;;;19.76;61.89;101534.38;4975628;28;124636;-63
2021/07/03 05:54:40;;;;;;;50.28;26.95;;;;;;;19.83;61.70;101541.03;4975844;28;124348;-63
2021/07/03 05:57:07;;;;;;;46.95;26.48;;;;;;;19.89;61.56;101535.25;4993244;28;113146;-63
2021/07/03 05:59:34;;;;;;;43.50;24.25;;;;;;;19.95;61.49;101533.94;4981915;28;113114;-63
2021/07/03 06:02:02;;;;;;;43.95;24.67;;;;;;;20.00;61.66;101526.34;4978987;28;126114;-64
2021/07/03 06:04:30;;;;;;;41.92;24.40;;;;;;;20.06;61.54;101530.41;4991221;28;124212;-63
2021/07/03 06:06:57;;;;;;;41.97;23.48;;;;;;;20.11;61.34;101539.00;4987237;28;113635;-63
2021/07/03 06:09:24;;;;;;;41.13;23.88;;;;;;;20.19;61.50;101531.22;4975780;28;114863;-63
2021/07/03 06:11:51;;;;;;;41.67;22.75;;;;;;;20.28;61.61;101530.53;4981503;28;124561;-63
2021/07/03 06:14:18;;;;;;;41.95;22.77;;;;;;;20.36;61.52;101528.16;4978912;28;124181;-63
2021/07/03 06:16:46;;;;;;;39.53;23.13;;;;;;;20.47;61.71;101523.78;4984527;28;115419;-63
2021/07/03 06:19:13;;;;;;;36.88;21.73;;;;;;;20.58;61.51;101515.72;4963790;28;115117;-63
2021/07/03 06:21:40;;;;;;;35.53;20.88;;;;;;;20.71;61.64;101521.91;4979520;28;124734;-63
2021/07/03 06:24:08;;;;;;;31.95;19.52;;;;;;;20.85;61.35;101522.69;4974975;28;123414;-63
2021/07/03 06:26:35;;;;;;;34.80;20.02;;;;;;;20.98;61.37;101531.50;4979531;28;115147;-63
2021/07/03 06:29:02;;;;;;;33.55;18.98;;;;;;;21.12;61.19;101525.91;4979644;28;114313;-63
2021/07/03 06:31:29;;;;;;;32.80;19.75;;;;;;;21.28;61.00;101519.31;4977119;28;123866;-63
2021/07/03 06:33:56;;;;;;;30.90;19.63;;;;;;;21.44;60.61;101517.13;4973271;28;124672;-63
2021/07/03 06:36:25;;;;;;;33.78;19.67;;;;;;;21.57;60.66;101525.94;4972701;28;114366;-63
2021/07/03 06:38:52;;;;;;;33.13;19.42;;;;;;;21.74;60.71;101539.91;4977411;28;113219;-63
2021/07/03 06:41:19;;;;;;;29.75;18.90;;;;;;;21.90;60.40;101532.25;4978384;28;124927;-63
2021/07/03 06:43:48;;;;;;;30.95;18.92;;;;;;;22.08;60.08;101529.03;4978284;28;123948;-63
2021/07/03 06:46:15;;;;;;;32.67;19.42;;;;;;;22.23;59.90;101527.75;4977426;28;114712;-63
2021/07/03 06:48:43;;;;;;;32.38;18.23;;;;;;;22.40;59.62;101528.22;4978304;28;114007;-64
2021/07/03 06:51:10;;;;;;;33.67;19.15;;;;;;;22.55;59.70;101526.91;4980441;28;124497;-65
2021/07/03 06:53:37;;;;;;;29.48;18.50;;;;;;;22.72;59.45;101529.03;4977020;28;123883;-65
2021/07/03 06:56:04;;;;;;;29.40;18.30;;;;;;;22.91;59.47;101522.03;4981392;28;114297;-65
2021/07/03 06:58:32;;;;;;;29.27;18.23;;;;;;;23.06;58.69;101520.75;4979340;28;112113;-64
2021/07/03 07:00:59;;;;;;;32.10;18.67;;;;;;;23.22;58.27;101524.78;4972570;28;124168;-64
2021/07/03 07:03:26;;;;;;;29.45;18.33;;;;;;;23.35;58.08;101517.31;4974882;28;123148;-65
2021/07/03 07:05:53;;;;;;;28.35;17.85;;;;;;;23.48;57.85;101520.63;4983919;28;114296;-64
2021/07/03 07:08:20;;;;;;;27.80;17.52;;;;;;;23.62;57.52;101515.81;4978632;28;115301;-64
2021/07/03 07:10:48;;;;;;;28.88;18.05;;;;;;;23.75;57.33;101515.59;4975724;28;127204;-64
2021/07/03 07:13:15;;;;;;;27.58;16.75;;;;;;;23.88;57.20;101503.56;4980104;28;124681;-64
2021/07/03 07:15:42;;;;;;;28.02;17.75;;;;;;;24.03;56.88;101520.22;4981017;28;114530;-63
2021/07/03 07:18:09;;;;;;;24.33;15.85;;;;;;;24.18;56.34;101517.94;4978390;28;114388;-62
2021/07/03 07:20:37;;;;;;;24.45;15.95;;;;;;;24.31;56.00;101519.53;4973692;28;123989;-62
2021/07/03 07:23:04;;;;;;;26.77;16.60;;;;;;;24.42;55.62;101522.94;4977310;28;125262;-64
2021/07/03 07:25:32;;;;;;;24.38;17.10;;;;;;;24.56;56.01;101518.97;4976086;28;114726;-64
2021/07/03 07:27:59;;;;;;;24.58;15.68;;;;;;;24.70;55.49;101519.56;4980789;28;114104;-64
2021/07/03 07:30:27;;;;;;;25.52;16.00;;;;;;;24.82;55.18;101521.94;4967075;28;123419;-63
2021/07/03 07:32:54;;;;;;;24.85;16.75;;;;;;;24.92;55.08;101516.50;4979106;28;124706;-63
2021/07/03 07:35:22;;;;;;;23.98;16.88;;;;;;;25.04;54.98;101515.31;4961362;28;113436;-63
2021/07/03 07:37:50;;;;;;;24.20;16.42;;;;;;;25.19;54.60;101517.56;4979575;28;114394;-65
2021/07/03 07:40:18;;;;;;;22.20;15.63;;;;;;;25.32;54.34;101511.84;4977469;28;123891;-63
2021/07/03 07:42:46;;;;;;;22.73;15.15;;;;;;;25.44;54.24;101511.47;4966867;28;122791;-63
2021/07/03 07:45:14;;;;;;;22.00;14.82;;;;;;;25.58;53.92;101514.69;4975182;28;114126;-63
2021/07/03 07:47:48;;;;;;;23.48;15.15;;;;;;;25.72;53.42;101506.03;4979600;28;114786;-63
2021/07/03 07:50:16;;;;;;;20.90;14.57;;;;;;;25.84;53.04;101502.13;4981785;28;123959;-63
2021/07/03 07:52:44;;;;;;;22.63;14.63;;;;;;;25.97;53.01;101506.34;4975369;28;124523;-64
2021/07/03 07:55:11;;;;;;;21.25;14.23;;;;;;;26.06;52.22;101502.72;4980642;28;115332;-63
2021/07/03 07:57:39;;;;;;;21.65;14.50;;;;;;;26.12;52.33;101504.78;4979519;28;115150;-63
2021/07/03 08:00:08;;;;;;;23.00;14.93;;;;;;;26.21;52.10;101514.72;4971387;28;123891;-63
2021/07/03 08:02:39;;;;;;;20.80;13.82;;;;;;;26.31;52.48;101509.22;4976268;28;124122;-63
2021/07/03 08:05:08;;;;;;;21.35;14.32;;;;;;;26.41;52.13;101503.72;4977073;28;114288;-63
2021/07/03 08:07:36;;;;;;;19.70;13.63;;;;;;;26.47;51.57;101508.50;4982863;28;113083;-63
2021/07/03 08:10:05;;;;;;;19.52;13.25;;;;;;;26.54;51.57;101498.72;4982138;28;124083;-63
2021/07/03 08:12:34;;;;;;;19.45;13.35;;;;;;;26.61;51.11;101494.38;4980081;28;124262;-63
2021/07/03 08:15:04;;;;;;;18.80;13.57;;;;;;;26.68;51.23;101496.47;4985733;28;114566;-63
2021/07/03 08:17:31;;;;;;;18.60;12.57;;;;;;;26.74;51.25;101499.41;4991504;28;114069;-63
2021/07/03 08:19:59;;;;;;;19.95;12.98;;;;;;;26.85;50.75;101502.88;4994549;28;123615;-64
2021/07/03 08:22:26;;;;;;;18.83;12.07;;;;;;;26.92;50.53;101501.22;4998452;28;124564;-64
2021/07/03 08:24:53;;;;;;;17.85;12.25;;;;;;;27.00;50.31;101498.56;4997767;28;113905;-64
2021/07/03 08:27:20;;;;;;;21.85;13.10;;;;;;;27.11;49.97;101494.72;4992112;28;114734;-64
2021/07/03 08:29:47;;;;;;;17.90;12.25;;;;;;;27.20;50.12;101493.75;4984239;28;124322;-64
2021/07/03 08:32:15;;;;;;;18.98;12.80;;;;;;;27.29;49.77;101492.78;4992381;28;122894;-63
2021/07/03 08:34:42;;;;;;;17.65;12.00;;;;;;;27.36;49.07;101488.38;4993622;28;115002;-63
2021/07/03 08:37:09;;;;;;;22.60;13.43;;;;;;;27.42;49.03;101480.59;4985177;28;113995;-63
2021/07/03 08:39:36;;;;;;;17.52;12.10;;;;;;;27.45;48.90;101486.56;4985357;28;123054;-63
2021/07/03 08:42:04;;;;;;;16.67;11.05;;;;;;;27.54;49.19;101490.19;4991361;28;124804;-61
2021/07/03 08:44:31;;;;;;;16.33;11.57;;;;;;;27.63;48.46;101477.44;4989588;28;115170;-63
2021/07/03 08:46:58;;;;;;;16.60;11.48;;;;;;;27.68;48.17;101478.63;4985502;28;114714;-63
2021/07/03 08:49:25;;;;;;;14.13;8.95;;;;;;;27.75;47.94;101482.41;4983986;28;124752;-63
2021/07/03 08:51:54;;;;;;;16.42;9.65;;;;;;;27.84;47.16;101479.69;4994583;28;124679;-63
2021/07/03 08:54:21;;;;;;;16.05;10.30;;;;;;;27.90;47.54;101470.91;4994788;28;114932;-63
2021/07/03 08:56:49;;;;;;;17.35;11.65;;;;;;;27.95;47.36;101473.94;4996571;28;114458;-63
2021/07/03 08:59:20;;;;;;;15.70;10.75;;;;;;;27.97;46.52;101469.19;4993350;28;124191;-63
2021/07/03 09:01:53;;;;;;;13.75;9.50;;;;;;;27.99;46.48;101464.44;4988423;28;123960;-63
2021/07/03 09:04:40;;;;;;;14.05;9.88;;;;;;;28.02;46.87;101461.38;4991836;28;113528;-63
2021/07/03 09:07:11;;;;;;;13.23;9.25;;;;;;;28.09;46.89;101462.41;4993715;28;114133;-63
2021/07/03 09:09:38;;;;;;;13.38;9.13;;;;;;;28.19;46.06;101455.94;4985681;28;123003;-63
2021/07/03 09:12:06;;;;;;;14.95;10.02;;;;;;;28.26;46.53;101454.25;4981556;28;122669;-64
2021/07/03 09:14:33;;;;;;;16.23;10.60;;;;;;;28.36;45.93;101452.19;5003621;28;113085;-63
2021/07/03 09:17:02;;;;;;;14.32;10.55;;;;;;;28.41;45.20;101455.25;4979132;28;113748;-63
2021/07/03 09:19:32;;;;;;;16.38;9.77;;;;;;;28.44;45.06;101449.44;4972240;28;124370;-63
2021/07/03 09:21:59;;;;;;;13.60;8.77;;;;;;;28.49;45.40;101447.06;4979028;28;123597;-63
2021/07/03 09:24:31;;;;;;;13.95;9.60;;;;;;;28.57;44.76;101448.09;4985874;28;114052;-63
2021/07/03 09:27:03;;;;;;;14.95;10.02;;;;;;;28.60;44.83;101447.78;4988464;28;113056;-64
2021/07/03 09:29:30;;;;;;;15.90;10.32;;;;;;;28.65;44.89;101445.34;4996056;28;125389;-63
2021/07/03 09:32:10;;;;;;;13.02;8.80;;;;;;;28.68;44.26;101445.03;4995356;28;124188;-63
2021/07/03 09:34:37;;;;;;;13.05;8.75;;;;;;;28.71;43.71;101452.88;4991784;28;113941;-63
2021/07/03 09:37:05;;;;;;;11.93;8.43;;;;;;;28.75;44.04;101451.47;4987207;28;115219;-63
2021/07/03 09:39:32;;;;;;;13.95;8.40;;;;;;;28.85;43.86;101448.56;4986145;28;123897;-63
2021/07/03 09:41:59;;;;;;;9.43;7.13;;;;;;;28.91;43.33;101456.91;5013668;22;123929;-71
2021/07/03 09:44:27;;;;;;;10.98;6.93;;;;;;;29.00;43.99;101456.88;4993852;28;114200;-71
2021/07/03 09:46:55;;;;;;;11.88;6.95;;;;;;;29.09;43.60;101453.09;4994899;28;113086;-71
2021/07/03 09:49:28;;;;;;;11.98;7.82;;;;;;;29.25;43.18;101446.72;4990481;28;123892;-71
2021/07/03 09:51:57;;;;;;;9.65;7.25;;;;;;;29.36;43.44;101449.06;4990552;28;124088;-71
2021/07/03 09:54:28;;;;;;;10.38;6.70;;;;;;;29.51;42.75;101454.63;4987300;28;114247;-71
2021/07/03 09:56:59;;;;;;;11.38;6.78;;;;;;;29.62;42.40;101445.19;4990677;28;113182;-71
2021/07/03 09:59:34;;;;;;;8.50;6.13;;;;;;;29.65;42.17;101442.09;4988044;28;123201;-71
2021/07/03 10:02:02;;;;;;;11.07;7.70;;;;;;;29.65;41.36;101437.47;4985622;28;123999;-71
2021/07/03 10:04:30;;;;;;;9.40;7.10;;;;;;;29.63;41.41;101438.69;4988916;28;114211;-71
2021/07/03 10:07:10;;;;;;;10.32;7.35;;;;;;;29.60;41.37;101434.44;4987041;28;114674;-71
2021/07/03 10:09:48;;;;;;;9.25;6.57;;;;;;;29.59;41.32;101435.47;4983370;28;124210;-71
2021/07/03 10:12:22;;;;;;;10.77;7.20;;;;;;;29.62;41.01;101426.91;4987318;28;122978;-71
2021/07/03 10:14:52;;;;;;;9.70;6.93;;;;;;;29.66;40.65;101427.41;4972957;28;114339;-71
2021/07/03 10:17:28;;;;;;;8.23;5.95;;;;;;;29.66;40.93;101428.25;4983675;28;115095;-71
2021/07/03 10:19:56;;;;;;;9.38;6.60;;;;;;;29.69;40.82;101427.91;4978551;28;123966;-71
2021/07/03 10:22:31;;;;;;;8.82;5.70;;;;;;;29.70;40.81;101434.19;4990182;28;123936;-71
2021/07/03 10:25:09;;;;;;;;;;;;;;;29.68;42.08;101426.19;4989928;28;115137;-71
2021/07/03 10:27:48;;;;;;;6.97;4.72;;;;;;;29.70;40.95;101426.88;4990506;28;115553;-71
2021/07/03 10:30:25;;;;;;;8.27;5.20;;;;;;;29.66;40.66;101428.25;4992022;28;123830;-71
2021/07/03 10:32:55;;;;;;;7.93;5.43;;;;;;;29.64;41.28;101424.84;4987990;28;123782;-71
2021/07/03 10:35:23;;;;;;;8.13;5.63;;;;;;;29.69;40.83;101429.78;4991107;28;114340;-71
2021/07/03 10:37:50;;;;;;;7.55;5.40;;;;;;;29.78;41.15;101427.84;4990138;28;114026;-71
2021/07/03 10:40:23;;;;;;;10.23;5.40;;;;;;;29.87;41.31;101429.50;4991756;28;124292;-71
2021/07/03 10:42:52;;;;;;;6.22;4.78;;;;;;;30.00;41.15;101423.44;4992437;28;124236;-71
2021/07/03 10:45:23;;;;;;;7.75;4.22;;;;;;;30.12;40.85;101415.66;4990164;28;114546;-71
2021/07/03 10:47:54;;;;;;;7.07;4.75;;;;;;;30.25;40.75;101413.13;4987936;28;114108;-71
2021/07/03 10:50:28;;;;;;;6.47;5.07;;;;;;;30.37;41.20;101411.69;4975149;28;124786;-71
2021/07/03 10:52:57;;;;;;;6.75;4.95;;;;;;;30.50;41.12;101407.44;4989181;28;123868;-71
2021/07/03 10:55:33;;;;;;;9.00;4.93;;;;;;;30.61;39.84;101404.25;4991946;28;114629;-71
2021/07/03 10:58:27;;;;;;;8.07;5.00;;;;;;;30.63;39.72;101402.22;4991443;28;97314;-71
2021/07/03 11:01:05;;;;;;;7.07;5.15;;;;;;;30.63;39.49;101396.75;4989345;28;123887;-71
2021/07/03 11:03:42;;;;;;;6.47;4.95;;;;;;;30.65;39.28;101400.13;4991396;28;124541;-71
2021/07/03 11:06:17;;;;;;;6.40;5.20;;;;;;;30.66;39.35;101401.81;4982084;28;114385;-71
2021/07/03 11:08:49;;;;;;;6.55;4.53;;;;;;;30.68;39.34;101399.75;4987622;28;114261;-71
2021/07/03 11:11:17;;;;;;;8.50;5.78;;;;;;;30.67;38.97;101395.31;4990702;28;124428;-71
2021/07/03 11:13:46;;;;;;;5.38;4.20;;;;;;;30.63;38.96;101396.75;4974367;28;124139;-71